KRAL/RAL METAR and TAF weather

Enter ICAO airport designator
Station Type Date Time Source
KRAL METAR 2022/06/26 07:53 UTC NOAA

KRAL 260753Z AUTO 00000KT 10SM CLR 22/12 A2995 RMK AO2 SLP123 T02170122 403830167


Station Type Date Time Source
KRAL Decoded METAR 2022/06/26 07:53 UTC NOAA

RIVERSIDE MUNICIPAL AIRPORT , CA, United States (KRAL) 33-57N 117-27W 252M
Jun 26, 2022 - 03:53 AM EDT / 2022.06.26 0753 UTC
Wind: Calm:0
Visibility: 10 mile(s):0
Sky conditions: clear
Temperature: 71.1 F (21.7 C)
Dew Point: 54.0 F (12.2 C)
Relative Humidity: 54%
Pressure (altimeter): 29.95 in. Hg (1014 hPa)
ob: KRAL 260753Z AUTO 00000KT 10SM CLR 22/12 A2995 RMK AO2 SLP123 T02170122 403830167
cycle: 8

Station Type Date Time Source
KRAL TAF UTC NOAA

Error!

Example: see airport list